WETTERDATEN

GESTERN
Time Temp. Taup. r.Fe. Windrich Windstärke Windböe Druck 1h Prec. 24h Prec.
00:03 13 12.5 97 45 0.3 1.1 1018.8 0.0000 0.0000
00:13 13 12.5 97 45 0.3 0.8 1018.9 0.0000 0.0000
00:23 12.9 12.4 97 23 0.3 1.1 1018.8 0.0000 0.0000
00:34 12.9 12.4 97 49 0.3 1.1 1018.8 0.0000 0.0000
00:43 12.8 12.3 97 45 0.8 1.4 1018.9 0.0000 0.0000
00:53 12.8 12.2 96 45 0.3 1.1 1018.9 0.0000 0.0000
01:03 12.7 12.1 96 41 0.8 1.4 1018.9 0.0000 0.0000
01:14 12.6 11.8 95 54 0.8 1.4 1018.8 0.0000 0.0000
01:24 12.6 11.7 94 48 1.1 1.7 1018.8 0.0000 0.0000
01:33 12.5 11.4 93 47 0.8 2.2 1018.8 0.0000 0.0000
01:44 12.4 11.1 92 43 1.1 1.7 1018.7 0.0000 0.0000
01:54 12.4 11.1 92 51 0.8 1.7 1018.7 0.0000 0.0000
02:04 12.4 11 91 47 0.8 1.4 1018.7 0.0000 0.0000
02:14 12.3 11 92 37 0.3 1.1 1018.6 0.0000 0.0000
02:24 12.2 10.9 92 45 0.3 1.1 1018.5 0.0000 0.0000
02:34 12.1 10.7 91 48 0.3 1.1 1018.5 0.0000 0.0000
02:44 12 10.6 91 90 0.3 1.1 1018.5 0.0000 0.0000
02:54 11.9 10.6 92 90 0.3 0.8 1018.5 0.0000 0.0000
03:04 11.8 10.5 92 90 0.3 0.8 1018.3 0.0000 0.0000
03:14 11.8 10.7 93 0 0.8 1018.3 0.0000 0.0000
03:24 11.7 10.6 93 27 0.3 0.8 1018.3 0.0000 0.0000
03:35 11.7 10.6 93 38 0.3 1.1 1018.3 0.0000 0.0000
03:44 11.6 10.5 93 45 0.3 0.8 1018.3 0.0000 0.0000
03:54 11.6 10.5 93 50 0.3 0.8 1018.3 0.0000 0.0000
04:05 11.6 10.7 94 50 0.3 0.8 1018.3 0.0000 0.0000
04:15 11.5 10.6 94 50 0.3 0.8 1018.3 0.0000 0.0000
04:24 11.5 10.4 93 48 0.3 1.1 1018.2 0.0000 0.0000
04:35 11.5 10.6 94 45 0.3 1.1 1018.2 0.0000 0.0000
04:45 11.5 10.6 94 49 0.3 0.8 1018.2 0.0000 0.0000
04:55 11.4 10.5 94 29 0.3 0.8 1018.1 0.0000 0.0000
05:04 11.4 10.5 94 45 0.3 0.8 1018.1 0.0000 0.0000
05:15 11.4 10.5 94 52 0.3 0.8 1018.1 0.0000 0.0000
05:25 11.4 10.5 94 40 0.3 1.1 1018.2 0.0000 0.0000
05:35 11.3 10.4 94 45 0.3 0.8 1018.1 0.0000 0.0000
05:45 11.3 10.5 95 50 0.3 0.8 1018.2 0.0000 0.0000
05:55 11.3 10.5 95 37 0.3 1.1 1018.2 0.0000 0.0000
06:05 11.3 10.5 95 39 0.3 0.8 1018.2 0.0000 0.0000
06:15 11.2 10.4 95 33 0.3 0.8 1018.2 0.0000 0.0000
06:26 11.2 10.4 95 45 0.3 1.1 1018.2 0.0000 0.0000
06:35 11.2 10.4 95 26 0.3 1.1 1018.3 0.0000 0.0000
06:45 11.2 10.4 95 45 0.3 0.8 1018.4 0.0000 0.0000
06:55 11.1 10.2 94 30 0.3 1.1 1018.4 0.0000 0.0000
07:06 11.1 10.3 95 48 0.3 1.1 1018.4 0.0000 0.0000
07:15 11.1 10.3 95 41 0.3 1.1 1018.4 0.0000 0.0000
07:25 11.1 10.2 94 48 0.3 1.1 1018.4 0.0000 0.0000
07:36 11.1 10.2 94 54 0.3 1.4 1018.4 0.0000 0.0000
07:46 11.2 10.4 95 56 0.3 0.8 1018.4 0.0000 0.0000
07:56 11.2 10.4 95 45 0.3 0.8 1018.5 0.0000 0.0000
08:06 11.3 10.7 96 45 0.3 0.8 1018.5 0.0000 0.0000
08:16 11.3 10.5 95 36 0.3 1.1 1018.5 0.0000 0.0000
08:26 11.4 10.8 96 30 0.3 1.1 1018.5 0.0000 0.0000
08:36 11.4 10.8 96 36 0.8 1.7 1018.5 0.0000 0.0000
08:46 11.5 10.9 96 45 0.3 1.1 1018.5 0.0000 0.0000
08:56 11.6 11 96 45 0.3 1.1 1018.3 0.0000 0.0000
09:06 11.7 11.1 96 53 0.3 1.1 1018.4 0.0000 0.0000
09:16 11.8 11.2 96 45 0.8 1.7 1018.4 0.0000 0.0000
09:27 11.9 11.1 95 45 0.3 1.1 1018.4 0.0000 0.0000
09:36 12 11.2 95 59 0.3 1.1 1018.5 0.0000 0.0000
09:46 12.1 11.3 95 53 0.8 1.4 1018.5 0.0000 0.0000
09:57 12.2 11.4 95 52 0.8 1.4 1018.6 0.0000 0.0000
10:07 12.4 11.6 95 58 0.3 1.1 1018.6 0.0000 0.0000
10:16 12.5 11.7 95 47 0.8 1.4 1018.7 0.0000 0.0000
10:27 12.7 11.8 94 38 0.8 1.4 1018.6 0.0000 0.0000
10:37 12.9 11.8 93 90 0.3 0.8 1018.7 0.0000 0.0000
10:47 13.2 11.9 92 45 0.8 1.4 1018.8 0.0000 0.0000
10:56 13.4 12 91 50 0.8 1.1 1018.8 0.0000 0.0000
11:07 13.5 11.7 89 65 0.8 1.4 1018.8 0.0000 0.0000
11:17 13.7 11.8 88 46 1.1 1.7 1018.8 0.0000 0.0000
11:27 13.8 11.7 87 54 0.8 1.4 1018.8 0.0000 0.0000
11:37 14 11.7 86 66 0.8 1.7 1018.9 0.0000 0.0000
11:47 14.3 12 86 66 0.8 1.4 1018.8 0.0000 0.0000
11:57 14.6 12.1 85 90 1.1 2.2 1018.7 0.0000 0.0000
12:07 15.1 12.2 83 45 0.8 1.7 1018.6 0.0000 0.0000
12:18 15.2 12 81 64 0.8 2.2 1018.6 0.0000 0.0000
12:27 14.9 11.3 79 42 0.8 3.1 1018.6 0.0000 0.0000
12:37 14.6 11.2 80 55 0.8 1.7 1018.6 0.0000 0.0000
12:48 14.6 11 79 90 0.8 1.7 1018.7 0.0000 0.0000
12:58 14.7 11.1 79 71 0.8 1.7 1018.6 0.0000 0.0000
13:07 14.8 11 78 90 0.3 1.4 1018.6 0.0000 0.0000
13:17 14.9 11.1 78 90 0.8 1.4 1018.6 0.0000 0.0000
13:27 15.1 11.3 78 45 1.1 2.2 1018.5 0.0000 0.0000
13:38 15.5 11.7 78 29 0.8 2.2 1018.5 0.0000 0.0000
13:47 15.8 11.8 77 45 0.8 1.4 1018.4 0.0000 0.0000
13:58 15.6 11.4 76 39 0.8 2.2 1018.4 0.0000 0.0000
14:08 15.5 11.1 75 41 0.8 1.1 1018.3 0.0000 0.0000
14:18 15.5 11.3 76 32 0.8 1.4 1018.3 0.0000 0.0000
14:28 15.5 11.5 77 35 0.3 1.1 1018.2 0.0000 0.0000
14:38 15.6 11.4 76 15 1.1 2.8 1018.2 0.0000 0.0000
14:48 15.4 11.2 76 35 0.8 1.7 1018.2 0.0000 0.0000
14:58 15.3 11.1 76 45 0.8 1.4 1018.2 0.0000 0.0000
15:09 15.3 11.1 76 45 0.8 1.1 1018.1 0.0000 0.0000
15:18 15.3 11.1 76 40 0.8 1.4 1018 0.0000 0.0000
15:28 15.3 11.1 76 29 0.8 1.4 1018.1 0.0000 0.0000
15:38 15.3 11.1 76 45 0.8 1.4 1018 0.0000 0.0000
15:49 15.3 11.1 76 45 1.1 1.7 1018 0.0000 0.0000
15:58 15.4 11 75 59 0.3 1.4 1018 0.0000 0.0000
16:08 15.5 11.3 76 38 0.3 1.1 1018 0.0000 0.0000
16:19 15.4 11 75 45 0.8 1.4 1018.1 0.0000 0.0000
16:29 15.4 11 75 45 0.3 1.1 1018.1 0.0000 0.0000
16:39 15.3 10.9 75 45 0.8 1.4 1017.9 0.0000 0.0000
16:48 15.2 10.8 75 50 0.8 1.4 1017.9 0.0000 0.0000
16:59 15.1 10.9 76 48 0.8 1.4 1018 0.0000 0.0000
17:09 14.9 10.9 77 45 0.8 1.1 1017.9 0.0000 0.0000
17:19 14.8 10.8 77 51 0.3 1.1 1017.9 0.0000 0.0000
17:28 14.7 10.7 77 45 0.3 1.1 1017.9 0.0000 0.0000
17:39 14.5 10.7 78 42 0.8 1.4 1017.9 0.0000 0.0000
17:49 14.4 10.8 79 45 0.3 1.1 1017.9 0.0000 0.0000
17:59 14.3 10.9 80 45 0.3 0.8 1018 0.0000 0.0000
18:09 14.1 10.9 81 41 0.3 1.1 1018 0.0000 0.0000
18:19 14 10.6 80 45 0.3 1.1 1018 0.0000 0.0000
18:29 13.8 10.6 81 41 0.3 1.1 1018 0.0000 0.0000
18:40 13.7 10.7 82 45 0.3 1.1 1017.9 0.0000 0.0000
18:49 13.5 10.5 82 40 0.3 1.1 1018 0.0000 0.0000
18:59 13.4 10.6 83 45 0.3 0.8 1018 0.0000 0.0000
19:09 13.2 10.4 83 25 0.3 0.8 1018.1 0.0000 0.0000
19:20 13.1 10.3 83 40 0.3 0.8 1018.2 0.0000 0.0000
19:30 12.9 10.3 84 0 0.8 1018.2 0.0000 0.0000
19:39 12.8 10.2 84 11 0.3 0.8 1018.3 0.0000 0.0000
19:50 12.7 10.2 85 48 0.3 1.1 1018.3 0.0000 0.0000
20:00 12.6 10.1 85 37 0.3 1.1 1018.4 0.0000 0.0000
20:10 12.5 10 85 45 0.3 1.1 1018.5 0.0000 0.0000
20:20 12.4 10.1 86 16 0.3 1.1 1018.5 0.0000 0.0000
20:30 12.3 10 86 29 0.3 0.8 1018.6 0.0000 0.0000
20:40 12.3 10.2 87 40 0.3 1.1 1018.7 0.0000 0.0000
20:50 12.2 10.1 87 30 0.3 1.1 1018.7 0.0000 0.0000
21:01 12.2 10.1 87 33 0.3 1.1 1018.8 0.0000 0.0000
21:10 12.1 10 87 21 0.3 1.1 1018.8 0.0000 0.0000
21:20 12.1 10 87 41 0.3 1.1 1018.8 0.0000 0.0000
21:30 12.1 10 87 38 0.3 1.1 1018.9 0.0000 0.0000
21:41 12 9.9 87 37 0.3 1.4 1018.9 0.0000 0.0000
21:50 12 10.1 88 39 0.8 1.4 1018.9 0.0000 0.0000
22:00 11.9 10 88 37 0.8 1.4 1019 0.0000 0.0000
22:11 11.9 10 88 52 0.3 0.8 1019 0.0000 0.0000
22:21 11.8 9.9 88 27 0.3 1.1 1019.1 0.0000 0.0000
22:30 11.8 9.9 88 39 0.8 1.4 1019.1 0.0000 0.0000
22:41 11.7 9.8 88 34 0.3 1.1 1019.2 0.0000 0.0000
22:51 11.7 9.8 88 29 0.8 1.7 1019.2 0.0000 0.0000
23:01 11.6 9.7 88 32 0.8 1.4 1019.3 0.0000 0.0000
23:11 11.6 9.7 88 30 0.8 1.4 1019.3 0.0000 0.0000
23:21 11.5 9.6 88 33 0.3 1.4 1019.3 0.0000 0.0000
23:31 11.5 9.6 88 41 0.3 1.4 1019.3 0.0000 0.0000
23:41 11.4 9.5 88 36 0.3 0.8 1019.3 0.0000 0.0000
23:51 11.4 9.5 88 45 0.8 1.1 1019.3 0.0000 0.0000

TAGESSTATISTIK

2021-09-19
TEMPERATUR
MITTEL
12.9
MAXIMUM
15.8
13:47
MINIMUM
11.1
06:55
LUFTDRUCK
MITTEL
1018.5
MAXIMUM
1019.3
23:01
MINIMUM
1017.9
16:39
TAUPUNKT
MITTEL
10.8
MAXIMUM
12.5
00:03
MINIMUM
9.5
23:41
FEUCHTIGKEIT
MITTEL
88
MAXIMUM
97
00:03
MINIMUM
75
14:08
WINDSTÄRKE
MITTEL
0.5
MAXIMUM
1.1
01:24
WINDBÖE
MITTEL
1.2
MAXIMUM
3.1
12:27
WINDRICHTUNG
VORHERRSCHENDE
NO
89.5%
N
2.8
NO
89.5
O
6.3
SO
0.0
S
0.0
SW
0.0
W
0.0
NW
0.0
NIEDERSCHLAG
REGEN STUNDE
0.0
REGEN TAG
0.0
TEMPERATUR (°C)
MINIMUM
11.1
MAXIMUM
15.8
MITTEL
12.9
LUFTDRUCK (hpa)
MINIMUM
1017.9
MAXIMUM
1019.3
MITTEL
1018.5
MESSGERÄT